createdAt,value
2018-04-27T00:01:05.604Z,14.77
2018-04-27T00:03:33.191Z,14.87
2018-04-27T00:06:00.802Z,14.81
2018-04-27T00:08:28.428Z,14.71
2018-04-27T00:10:56.047Z,14.59
2018-04-27T00:13:23.634Z,14.44
2018-04-27T00:15:51.368Z,14.37
2018-04-27T00:18:18.964Z,14.30
2018-04-27T00:20:46.568Z,14.39
2018-04-27T00:23:14.244Z,14.25
2018-04-27T00:25:41.912Z,14.25
2018-04-27T00:28:09.582Z,14.23
2018-04-27T00:30:37.233Z,14.26
2018-04-27T00:33:04.904Z,14.27
2018-04-27T00:35:32.544Z,14.26
2018-04-27T00:38:00.221Z,14.23
2018-04-27T00:40:27.882Z,14.23
2018-04-27T00:42:55.548Z,14.17
2018-04-27T00:45:23.158Z,14.07
2018-04-27T00:47:51.001Z,14.04
2018-04-27T00:50:18.745Z,13.97
2018-04-27T00:52:58.084Z,13.99
2018-04-27T00:55:25.666Z,13.92
2018-04-27T00:57:53.252Z,13.81
2018-04-27T01:00:21.069Z,13.77
2018-04-27T01:02:48.651Z,13.65
2018-04-27T01:05:16.233Z,13.73
2018-04-27T01:07:43.856Z,13.67
2018-04-27T01:10:11.441Z,13.62
2018-04-27T01:12:39.033Z,13.68
2018-04-27T01:15:06.651Z,13.65
2018-04-27T01:17:34.239Z,13.64
2018-04-27T01:20:01.856Z,13.73
2018-04-27T01:22:29.480Z,13.92
2018-04-27T01:24:57.054Z,13.73
2018-04-27T01:27:24.631Z,13.74
2018-04-27T01:29:52.389Z,13.92
2018-04-27T01:32:20.050Z,13.93
2018-04-27T01:34:47.635Z,13.87
2018-04-27T01:37:15.258Z,13.79
2018-04-27T01:39:42.851Z,13.74
2018-04-27T01:42:10.434Z,13.67
2018-04-27T01:44:38.051Z,13.63
2018-04-27T01:47:05.819Z,13.61
2018-04-27T01:49:33.677Z,13.61
2018-04-27T01:52:01.305Z,13.64
2018-04-27T01:54:28.911Z,13.60
2018-04-27T01:56:56.486Z,13.54
2018-04-27T01:59:24.148Z,13.50
2018-04-27T02:01:51.723Z,13.43
2018-04-27T02:04:19.309Z,13.40
2018-04-27T02:06:46.940Z,13.36
2018-04-27T02:09:14.522Z,13.31
2018-04-27T02:11:42.109Z,13.26
2018-04-27T02:14:09.737Z,13.29
2018-04-27T02:16:37.321Z,13.30
2018-04-27T02:19:04.898Z,13.30
2018-04-27T02:21:32.508Z,13.27
2018-04-27T02:24:00.092Z,13.23
2018-04-27T02:26:27.675Z,13.21
2018-04-27T02:28:55.296Z,13.15
2018-04-27T02:31:22.889Z,13.16
2018-04-27T02:33:50.463Z,13.17
2018-04-27T02:36:18.092Z,13.21
2018-04-27T02:38:45.671Z,13.21
2018-04-27T02:41:13.262Z,13.22
2018-04-27T02:43:40.879Z,13.38
2018-04-27T02:46:08.456Z,13.52
2018-04-27T02:48:36.042Z,13.57
2018-04-27T02:51:03.658Z,13.60
2018-04-27T02:53:31.288Z,13.64
2018-04-27T02:55:58.934Z,13.62
2018-04-27T02:58:26.574Z,13.67
2018-04-27T03:00:54.253Z,13.72
2018-04-27T03:03:21.830Z,13.75
2018-04-27T03:05:49.448Z,13.80
2018-04-27T03:08:17.050Z,13.84
2018-04-27T03:10:44.635Z,13.86
2018-04-27T03:13:12.265Z,13.87
2018-04-27T03:15:39.852Z,13.95
2018-04-27T03:18:07.446Z,13.91
2018-04-27T03:20:35.059Z,13.96
2018-04-27T03:23:02.653Z,14.00
2018-04-27T03:25:30.285Z,14.03
2018-04-27T03:27:57.912Z,14.10
2018-04-27T03:30:25.509Z,14.17
2018-04-27T03:32:53.094Z,14.18
2018-04-27T03:35:20.725Z,14.23
2018-04-27T03:37:48.305Z,14.31
2018-04-27T03:40:15.889Z,14.42
2018-04-27T03:42:43.521Z,14.50
2018-04-27T03:45:11.113Z,14.50
2018-04-27T03:47:38.704Z,14.54
2018-04-27T03:52:39.347Z,15.48
2018-04-27T03:55:06.935Z,16.00
2018-04-27T03:57:34.544Z,16.59
2018-04-27T04:00:13.913Z,17.23
2018-04-27T04:02:53.077Z,17.42
2018-04-27T04:05:39.339Z,17.32
2018-04-27T04:08:06.919Z,17.31
2018-04-27T04:10:34.870Z,18.00
2018-04-27T04:13:02.475Z,19.00
2018-04-27T04:15:30.201Z,19.14
2018-04-27T04:17:57.778Z,18.89
2018-04-27T04:20:25.409Z,18.16
2018-04-27T04:22:52.989Z,17.79
2018-04-27T04:25:20.658Z,17.30
2018-04-27T04:27:48.278Z,17.26
2018-04-27T04:30:15.873Z,17.38
2018-04-27T04:32:43.451Z,17.22
2018-04-27T04:35:11.070Z,17.15
2018-04-27T04:37:38.663Z,17.08
2018-04-27T04:40:06.245Z,17.06
2018-04-27T04:42:33.884Z,16.85
2018-04-27T04:45:01.487Z,16.79
2018-04-27T04:47:29.082Z,16.70
2018-04-27T04:49:56.729Z,16.72
2018-04-27T04:52:24.376Z,16.60
2018-04-27T04:54:51.973Z,16.42
2018-04-27T04:57:19.598Z,16.13
2018-04-27T04:59:47.192Z,16.22
2018-04-27T05:02:14.780Z,16.51
2018-04-27T05:04:42.396Z,16.58
2018-04-27T05:07:09.988Z,16.47
2018-04-27T05:09:37.759Z,16.57
2018-04-27T05:12:05.384Z,16.64
2018-04-27T05:14:32.963Z,16.70
2018-04-27T05:17:00.545Z,16.66
2018-04-27T05:19:28.394Z,16.62
2018-04-27T05:21:56.069Z,16.72
2018-04-27T05:24:23.638Z,16.89
2018-04-27T05:26:51.243Z,16.93
2018-04-27T05:29:19.055Z,16.91
2018-04-27T05:31:46.709Z,16.85
2018-04-27T05:34:14.341Z,16.75
2018-04-27T05:36:41.922Z,16.65
2018-04-27T05:39:09.502Z,16.66
2018-04-27T05:41:37.119Z,16.85
2018-04-27T05:44:04.825Z,17.08
2018-04-27T05:46:32.471Z,17.37
2018-04-27T05:49:00.341Z,18.65
2018-04-27T05:51:27.893Z,21.10
2018-04-27T05:53:55.488Z,23.45
2018-04-27T05:56:23.108Z,25.79
2018-04-27T05:58:50.697Z,27.73
2018-04-27T06:01:18.508Z,28.14
2018-04-27T06:03:57.795Z,28.96
2018-04-27T06:06:25.380Z,29.56
2018-04-27T06:08:52.955Z,29.99
2018-04-27T06:11:20.654Z,30.04
2018-04-27T06:13:48.227Z,31.04
2018-04-27T06:16:15.805Z,31.36
2018-04-27T06:18:43.420Z,30.73
2018-04-27T06:21:11.005Z,31.69
2018-04-27T06:23:38.597Z,31.57
2018-04-27T06:26:06.213Z,30.59
2018-04-27T06:28:49.585Z,30.29
2018-04-27T06:31:17.193Z,31.15
2018-04-27T06:33:44.783Z,31.93
2018-04-27T06:36:12.354Z,32.18
2018-04-27T06:38:40.015Z,33.25
2018-04-27T06:41:07.724Z,32.98
2018-04-27T06:43:35.313Z,33.55
2018-04-27T06:46:02.953Z,33.50
2018-04-27T06:48:30.542Z,35.01
2018-04-27T06:50:58.928Z,34.72
2018-04-27T06:53:26.567Z,35.17
2018-04-27T06:55:54.152Z,34.41
2018-04-27T06:58:21.727Z,33.54
2018-04-27T07:00:49.358Z,33.49
2018-04-27T07:03:16.941Z,33.18
2018-04-27T07:05:44.505Z,33.29
2018-04-27T07:08:12.154Z,33.97
2018-04-27T07:10:39.727Z,34.76
2018-04-27T07:13:07.341Z,35.28
2018-04-27T07:15:35.012Z,35.58
2018-04-27T07:18:02.590Z,36.07
2018-04-27T07:20:30.184Z,36.98
2018-04-27T07:22:57.806Z,38.03
2018-04-27T07:25:25.380Z,37.88
2018-04-27T07:27:52.958Z,37.63
2018-04-27T07:30:20.610Z,37.03
2018-04-27T07:32:48.237Z,37.50
2018-04-27T07:35:15.849Z,37.36
2018-04-27T07:37:43.488Z,37.84
2018-04-27T07:40:11.055Z,37.93
2018-04-27T07:42:38.664Z,36.35
2018-04-27T07:45:06.293Z,35.98
2018-04-27T07:47:33.890Z,34.85
2018-04-27T07:50:01.470Z,35.27
2018-04-27T07:52:29.157Z,35.52
2018-04-27T07:54:56.773Z,33.74
2018-04-27T07:57:24.407Z,34.98
2018-04-27T07:59:52.017Z,35.45
2018-04-27T08:02:19.670Z,35.15
2018-04-27T08:04:47.295Z,34.83
2018-04-27T08:07:14.927Z,36.08
2018-04-27T08:09:42.595Z,36.32
2018-04-27T08:12:10.183Z,35.60
2018-04-27T08:14:37.839Z,35.80
2018-04-27T08:17:05.449Z,35.32
2018-04-27T08:19:33.023Z,35.30
2018-04-27T08:22:00.794Z,35.76
2018-04-27T08:24:28.423Z,35.18
2018-04-27T08:26:56.180Z,35.00
2018-04-27T08:29:23.925Z,35.97
2018-04-27T08:31:51.801Z,35.33
2018-04-27T08:34:19.467Z,34.81
2018-04-27T08:36:47.211Z,34.94
2018-04-27T08:39:14.908Z,35.39
2018-04-27T08:41:42.681Z,35.50
2018-04-27T08:44:10.395Z,36.21
2018-04-27T08:46:38.094Z,36.94
2018-04-27T08:49:05.947Z,37.16
2018-04-27T08:51:33.703Z,37.80
2018-04-27T08:54:01.409Z,37.28
2018-04-27T08:56:29.085Z,36.45
2018-04-27T08:58:56.798Z,36.86
2018-04-27T09:01:24.458Z,35.32
2018-04-27T09:03:52.153Z,35.16
2018-04-27T09:06:19.941Z,34.63
2018-04-27T09:08:47.645Z,35.93
2018-04-27T09:11:15.497Z,34.65
2018-04-27T09:13:43.203Z,34.65
2018-04-27T09:16:10.911Z,34.86
2018-04-27T09:18:38.609Z,35.38
2018-04-27T09:21:06.355Z,35.64
2018-04-27T09:23:34.033Z,35.78
2018-04-27T09:26:01.700Z,35.68
2018-04-27T09:28:29.440Z,35.76
2018-04-27T09:30:57.142Z,34.52
2018-04-27T09:33:24.816Z,34.95
2018-04-27T09:35:52.555Z,34.43
2018-04-27T09:38:20.232Z,33.84
2018-04-27T09:40:47.931Z,34.07
2018-04-27T09:43:15.654Z,34.66
2018-04-27T09:45:43.326Z,35.40
2018-04-27T09:48:11.100Z,35.38
2018-04-27T09:50:38.820Z,35.25
2018-04-27T09:53:06.541Z,36.18
2018-04-27T09:55:34.281Z,36.05
2018-04-27T09:58:02.017Z,35.71
2018-04-27T10:00:29.696Z,36.34
2018-04-27T10:02:57.583Z,35.74
2018-04-27T10:05:25.295Z,34.94
2018-04-27T10:07:52.964Z,34.09
2018-04-27T10:10:20.656Z,34.69
2018-04-27T10:12:48.287Z,34.66
2018-04-27T10:15:15.901Z,35.01
2018-04-27T10:17:43.519Z,35.34
2018-04-27T10:20:11.153Z,35.26
2018-04-27T10:22:38.738Z,34.29
2018-04-27T10:25:06.362Z,34.06
2018-04-27T10:27:34.017Z,35.17
2018-04-27T10:30:01.599Z,35.12
2018-04-27T10:32:29.193Z,33.91
2018-04-27T10:34:57.016Z,33.29
2018-04-27T10:37:24.665Z,34.05
2018-04-27T10:39:52.261Z,35.46
2018-04-27T10:42:19.877Z,35.41
2018-04-27T10:44:47.511Z,34.20
2018-04-27T10:47:15.155Z,34.34
2018-04-27T10:49:42.824Z,34.39
2018-04-27T10:52:10.406Z,33.53
2018-04-27T10:54:37.988Z,33.87
2018-04-27T10:57:05.609Z,34.67
2018-04-27T10:59:33.249Z,33.69
2018-04-27T11:02:00.842Z,33.21
2018-04-27T11:04:28.459Z,33.91
2018-04-27T11:06:56.090Z,34.29
2018-04-27T11:09:23.738Z,34.92
2018-04-27T11:11:51.361Z,35.56
2018-04-27T11:14:18.950Z,35.39
2018-04-27T11:16:46.598Z,35.27
2018-04-27T11:19:14.196Z,35.41
2018-04-27T11:21:41.783Z,35.38
2018-04-27T11:24:09.435Z,35.31
2018-04-27T11:26:37.054Z,35.66
2018-04-27T11:29:04.636Z,35.29
2018-04-27T11:31:32.224Z,34.11
2018-04-27T11:33:59.883Z,36.03
2018-04-27T11:36:27.460Z,36.91
2018-04-27T11:38:55.077Z,35.02
2018-04-27T11:41:22.707Z,34.72
2018-04-27T11:43:50.336Z,33.62
2018-04-27T11:46:17.975Z,33.09
2018-04-27T11:48:45.646Z,32.09
2018-04-27T11:51:13.236Z,32.89
2018-04-27T11:53:40.933Z,33.43
2018-04-27T11:56:08.573Z,33.18
2018-04-27T11:58:36.187Z,33.14
2018-04-27T12:01:03.836Z,33.64
2018-04-27T12:03:31.451Z,35.74
2018-04-27T12:05:59.077Z,35.87
2018-04-27T12:08:26.664Z,34.38
2018-04-27T12:10:54.266Z,33.95
2018-04-27T12:13:21.861Z,32.58
2018-04-27T12:15:49.490Z,32.46
2018-04-27T12:18:17.109Z,32.38
2018-04-27T12:20:44.701Z,33.33
2018-04-27T12:23:12.291Z,34.95
2018-04-27T12:25:39.898Z,33.84
2018-04-27T12:28:07.488Z,33.94
2018-04-27T12:30:35.065Z,33.34
2018-04-27T12:33:02.684Z,33.50
2018-04-27T12:35:30.262Z,33.68
2018-04-27T12:37:57.853Z,33.52
2018-04-27T12:40:25.463Z,33.51
2018-04-27T12:42:53.064Z,33.54
2018-04-27T12:45:20.657Z,33.98
2018-04-27T12:47:48.270Z,34.79
2018-04-27T12:50:15.846Z,34.66
2018-04-27T12:52:43.440Z,34.49
2018-04-27T12:55:11.092Z,34.65
2018-04-27T12:57:38.698Z,33.93
2018-04-27T13:00:06.298Z,32.62
2018-04-27T13:02:33.943Z,32.14
2018-04-27T13:05:01.558Z,31.57
2018-04-27T13:07:29.142Z,30.61
2018-04-27T13:09:56.748Z,30.17
2018-04-27T13:12:24.395Z,29.30
2018-04-27T13:14:51.973Z,29.39
2018-04-27T13:17:19.599Z,29.35
2018-04-27T13:19:47.189Z,29.70
2018-04-27T13:22:14.808Z,29.98
2018-04-27T13:24:42.432Z,30.39
2018-04-27T13:27:10.008Z,30.28
2018-04-27T13:29:37.597Z,29.81
2018-04-27T13:32:05.228Z,29.75
2018-04-27T13:34:32.825Z,29.80
2018-04-27T13:37:00.399Z,29.74
2018-04-27T13:39:28.029Z,29.45
2018-04-27T13:41:55.638Z,29.65
2018-04-27T13:44:23.215Z,29.40
2018-04-27T13:46:50.890Z,29.49
2018-04-27T13:49:18.471Z,29.50
2018-04-27T13:51:46.096Z,29.28
2018-04-27T13:54:13.708Z,29.29
2018-04-27T13:56:41.295Z,29.43
2018-04-27T13:59:08.872Z,29.51
2018-04-27T14:01:36.489Z,29.44
2018-04-27T14:04:04.071Z,29.60
2018-04-27T14:06:31.668Z,29.76
2018-04-27T14:08:59.342Z,29.91
2018-04-27T14:11:26.994Z,29.77
2018-04-27T14:13:54.583Z,30.01
2018-04-27T14:16:22.302Z,29.76
2018-04-27T14:18:49.866Z,29.80
2018-04-27T14:21:17.461Z,29.92
2018-04-27T14:23:45.083Z,29.71
2018-04-27T14:26:12.649Z,29.91
2018-04-27T14:28:40.208Z,29.75
2018-04-27T14:31:07.819Z,29.25
2018-04-27T14:33:35.461Z,29.36
2018-04-27T14:36:03.060Z,29.41
2018-04-27T14:38:30.669Z,28.79
2018-04-27T14:40:58.246Z,28.70
2018-04-27T14:43:25.854Z,28.65
2018-04-27T14:45:53.460Z,28.53
2018-04-27T14:48:21.040Z,28.47
2018-04-27T14:50:48.617Z,28.38
2018-04-27T14:53:16.249Z,28.30
2018-04-27T14:55:43.836Z,28.05
2018-04-27T14:58:11.463Z,28.00
2018-04-27T15:00:39.102Z,27.85
2018-04-27T15:03:06.726Z,27.69
2018-04-27T15:05:34.305Z,27.56
2018-04-27T15:08:01.915Z,27.35
2018-04-27T15:10:29.488Z,27.14
2018-04-27T15:12:57.093Z,27.19
2018-04-27T15:15:24.696Z,27.27
2018-04-27T15:17:52.288Z,27.30
2018-04-27T15:20:19.870Z,27.00
2018-04-27T15:22:47.487Z,27.11
2018-04-27T15:25:15.076Z,27.20
2018-04-27T15:27:42.656Z,27.28
2018-04-27T15:30:10.261Z,27.31
2018-04-27T15:32:37.845Z,27.29
2018-04-27T15:35:05.415Z,27.21
2018-04-27T15:37:33.053Z,27.24
2018-04-27T15:40:00.658Z,27.22
2018-04-27T15:42:28.248Z,27.19
2018-04-27T15:44:55.855Z,27.09
2018-04-27T15:47:24.349Z,27.09
2018-04-27T15:49:52.024Z,26.97
2018-04-27T15:52:19.665Z,26.92
2018-04-27T15:54:47.240Z,26.80
2018-04-27T15:57:14.819Z,26.78
2018-04-27T15:59:42.436Z,26.70
2018-04-27T16:02:10.167Z,26.68
2018-04-27T16:04:37.738Z,26.62
2018-04-27T16:07:05.339Z,26.55
2018-04-27T16:09:32.958Z,26.50
2018-04-27T16:12:00.543Z,26.39
2018-04-27T16:14:28.160Z,26.27
2018-04-27T16:16:55.808Z,26.23
2018-04-27T16:19:23.414Z,26.15
2018-04-27T16:21:51.020Z,26.10
2018-04-27T16:24:18.625Z,26.03
2018-04-27T16:26:46.189Z,25.95
2018-04-27T16:29:13.787Z,25.87
2018-04-27T16:31:42.277Z,25.68
2018-04-27T16:34:09.851Z,25.65
2018-04-27T16:36:37.468Z,25.54
2018-04-27T16:39:05.105Z,25.44
2018-04-27T16:41:32.679Z,25.35
2018-04-27T16:44:00.304Z,25.21
2018-04-27T16:46:27.918Z,25.11
2018-04-27T16:48:55.557Z,24.98
2018-04-27T16:51:23.181Z,24.85
2018-04-27T16:53:50.763Z,24.76
2018-04-27T16:56:18.350Z,24.72
2018-04-27T16:58:45.980Z,24.58
2018-04-27T17:01:13.594Z,24.43
2018-04-27T17:03:41.236Z,24.10
2018-04-27T17:06:08.868Z,23.88
2018-04-27T17:08:36.445Z,23.77
2018-04-27T17:11:04.024Z,23.51
2018-04-27T17:13:31.699Z,23.41
2018-04-27T17:15:59.263Z,23.28
2018-04-27T17:18:26.885Z,23.14
2018-04-27T17:20:54.511Z,22.94
2018-04-27T17:23:22.113Z,22.74
2018-04-27T17:25:49.682Z,22.61
2018-04-27T17:28:17.290Z,22.54
2018-04-27T17:30:44.910Z,22.37
2018-04-27T17:33:13.246Z,22.26
2018-04-27T17:35:40.915Z,22.18
2018-04-27T17:38:08.583Z,22.10
2018-04-27T17:40:36.172Z,22.03
2018-04-27T17:43:03.784Z,21.92
2018-04-27T17:45:31.362Z,21.78
2018-04-27T17:47:58.937Z,21.68
2018-04-27T17:50:26.554Z,21.65
2018-04-27T17:52:54.150Z,21.55
2018-04-27T17:55:21.750Z,21.38
2018-04-27T17:57:49.374Z,21.24
2018-04-27T18:00:17.088Z,21.16
2018-04-27T18:02:44.662Z,21.06
2018-04-27T18:05:12.272Z,20.98
2018-04-27T18:07:39.852Z,20.93
2018-04-27T18:10:07.424Z,20.87
2018-04-27T18:12:35.042Z,20.81
2018-04-27T18:15:02.623Z,20.79
2018-04-27T18:17:30.297Z,20.72
2018-04-27T18:19:57.921Z,20.65
2018-04-27T18:22:25.508Z,20.61
2018-04-27T18:24:53.095Z,20.54
2018-04-27T18:27:20.720Z,20.47
2018-04-27T18:29:48.340Z,20.40
2018-04-27T18:32:15.933Z,20.27
2018-04-27T18:34:43.541Z,20.27
2018-04-27T18:37:11.127Z,20.22
2018-04-27T18:39:38.741Z,20.14
2018-04-27T18:42:06.369Z,20.07
2018-04-27T18:44:33.970Z,20.07
2018-04-27T18:47:01.540Z,19.98
2018-04-27T18:49:29.162Z,19.86
2018-04-27T18:51:56.757Z,19.77
2018-04-27T18:54:24.339Z,19.67
2018-04-27T18:56:52.085Z,19.54
2018-04-27T18:59:19.670Z,19.44
2018-04-27T19:01:47.289Z,19.34
2018-04-27T19:04:15.782Z,19.26
2018-04-27T19:06:43.400Z,19.11
2018-04-27T19:09:11.006Z,19.01
2018-04-27T19:11:41.208Z,19.00
2018-04-27T19:14:08.884Z,18.99
2018-04-27T19:16:36.531Z,18.90
2018-04-27T19:19:04.149Z,18.78
2018-04-27T19:21:31.802Z,18.80
2018-04-27T19:23:59.384Z,18.77
2018-04-27T19:26:27.154Z,18.76
2018-04-27T19:28:54.798Z,18.61
2018-04-27T19:31:22.381Z,18.52
2018-04-27T19:33:52.711Z,18.58
2018-04-27T19:36:20.285Z,18.43
2018-04-27T19:38:47.934Z,18.47
2018-04-27T19:41:15.569Z,18.44
2018-04-27T19:43:43.168Z,18.53
2018-04-27T19:46:10.793Z,18.49
2018-04-27T19:48:38.410Z,18.38
2018-04-27T19:51:06.028Z,18.27
2018-04-27T19:53:33.662Z,18.20
2018-04-27T19:56:01.300Z,18.20
2018-04-27T19:58:28.893Z,18.17
2018-04-27T20:00:56.556Z,18.16
2018-04-27T20:03:24.165Z,18.13
2018-04-27T20:05:51.848Z,18.19
2018-04-27T20:08:22.418Z,18.21
2018-04-27T20:10:50.313Z,18.16
2018-04-27T20:13:18.501Z,18.08
2018-04-27T20:15:49.710Z,18.05
2018-04-27T20:18:26.268Z,18.01
2018-04-27T20:20:53.942Z,17.99
2018-04-27T20:23:22.366Z,17.98
2018-04-27T20:25:50.920Z,17.96
2018-04-27T20:28:18.585Z,17.97
2018-04-27T20:30:46.219Z,18.00
2018-04-27T20:33:14.615Z,17.95
2018-04-27T20:35:42.317Z,17.91
2018-04-27T20:38:20.710Z,17.85
2018-04-27T20:40:48.476Z,17.79
2018-04-27T20:43:16.963Z,17.79
2018-04-27T20:45:44.674Z,17.74
2018-04-27T20:48:12.559Z,17.79
2018-04-27T20:50:40.230Z,17.83
2018-04-27T20:53:07.899Z,17.79
2018-04-27T20:55:36.216Z,17.82
2018-04-27T20:58:03.810Z,17.83
2018-04-27T21:00:31.489Z,17.77
2018-04-27T21:02:59.182Z,17.77
2018-04-27T21:05:27.615Z,17.74
2018-04-27T21:07:55.213Z,17.77
2018-04-27T21:10:22.903Z,17.72
2018-04-27T21:12:51.490Z,17.61
2018-04-27T21:15:19.097Z,17.60
2018-04-27T21:17:49.531Z,17.57
2018-04-27T21:20:17.937Z,17.48
2018-04-27T21:22:45.566Z,17.52
2018-04-27T21:25:13.279Z,17.51
2018-04-27T21:27:43.348Z,17.53
2018-04-27T21:30:11.005Z,17.57
2018-04-27T21:32:38.659Z,17.57
2018-04-27T21:35:06.320Z,17.60
2018-04-27T21:37:34.002Z,17.42
2018-04-27T21:40:01.868Z,17.45
2018-04-27T21:42:29.501Z,17.43
2018-04-27T21:44:57.189Z,17.37
2018-04-27T21:47:37.962Z,17.29
2018-04-27T21:50:06.475Z,17.17
2018-04-27T21:52:36.944Z,17.16
2018-04-27T21:55:05.332Z,17.14
2018-04-27T22:00:40.143Z,17.04
2018-04-27T22:03:14.560Z,17.02
2018-04-27T22:05:49.867Z,17.02
2018-04-27T22:08:23.152Z,17.01
2018-04-27T22:10:50.801Z,17.03
2018-04-27T22:13:19.436Z,17.11
2018-04-27T22:15:47.114Z,17.08
2018-04-27T22:18:14.741Z,17.04
2018-04-27T22:20:45.088Z,16.96
2018-04-27T22:23:12.811Z,16.95
2018-04-27T22:25:42.244Z,16.82
2018-04-27T22:28:09.896Z,16.67
2018-04-27T22:30:38.592Z,16.61
2018-04-27T22:36:45.596Z,16.66
2018-04-27T22:39:26.788Z,16.66
2018-04-27T22:42:10.200Z,16.71
2018-04-27T22:44:45.525Z,16.79
2018-04-27T22:47:17.963Z,16.84
2018-04-27T22:49:45.598Z,16.75
2018-04-27T22:52:13.187Z,16.68
2018-04-27T22:54:47.638Z,16.67
2018-04-27T22:57:31.619Z,16.65
2018-04-27T22:59:59.290Z,16.60
2018-04-27T23:02:27.835Z,16.62
2018-04-27T23:04:58.173Z,16.59
2018-04-27T23:07:36.539Z,16.54
2018-04-27T23:10:04.251Z,16.48
2018-04-27T23:12:33.507Z,16.45
2018-04-27T23:15:01.156Z,16.42
2018-04-27T23:17:28.860Z,16.44
2018-04-27T23:19:57.323Z,16.37
2018-04-27T23:22:42.064Z,16.26
2018-04-27T23:25:25.466Z,16.28
2018-04-27T23:27:53.105Z,16.21
2018-04-27T23:30:21.563Z,16.19
2018-04-27T23:32:49.286Z,16.13
2018-04-27T23:35:17.003Z,16.12
2018-04-27T23:37:44.602Z,16.13
2018-04-27T23:40:12.256Z,16.14
2018-04-27T23:42:39.972Z,16.26
2018-04-27T23:45:08.427Z,16.29
2018-04-27T23:47:36.029Z,16.33
2018-04-27T23:50:03.648Z,16.37
2018-04-27T23:52:31.233Z,16.40
2018-04-27T23:54:58.834Z,16.37
2018-04-27T23:57:26.516Z,16.34
2018-04-27T23:59:54.158Z,16.33
